Terminal Aerodrome Forecast
Issued by NWS

Home | Current Version | Previous Version | Text Only | Print | Product List | Glossary Off
Versions: 1 2 3 4 5 6 7 8 9 10 11 12 13 14 15 16

480
FTUS43 KIWX 232331
TAFSBN
TAF
KSBN 232331Z 2400/2424 15008KT P6SM VCSH OVC060
      TEMPO 2400/2402 -RA
     FM240300 12008KT P6SM OVC025
     FM240500 11007KT P6SM OVC015
     FM241500 09007KT P6SM OVC008
     FM241800 06006KT P6SM OVC010=

USA.gov is the U.S. government's official web portal to all federal, state and local government web resources and services.